createdAt,value
2018-10-17T00:01:18.613Z,77280.20
2018-10-17T00:03:45.437Z,77281.20
2018-10-17T00:06:12.344Z,77293.22
2018-10-17T00:08:40.012Z,77292.22
2018-10-17T00:11:06.878Z,77289.22
2018-10-17T00:13:33.735Z,77291.22
2018-10-17T00:16:00.570Z,77291.22
2018-10-17T00:18:27.418Z,77290.22
2018-10-17T00:20:54.796Z,77289.22
2018-10-17T00:23:21.628Z,77294.22
2018-10-17T00:25:49.406Z,77295.22
2018-10-17T00:28:16.215Z,77297.23
2018-10-17T00:30:43.121Z,77301.23
2018-10-17T00:33:09.958Z,77299.23
2018-10-17T00:35:36.888Z,77303.23
2018-10-17T00:38:04.741Z,77299.23
2018-10-17T00:40:31.670Z,77300.23
2018-10-17T00:42:58.479Z,77295.22
2018-10-17T00:45:25.733Z,77296.22
2018-10-17T00:47:53.462Z,77291.22
2018-10-17T00:50:20.368Z,77292.22
2018-10-17T00:52:47.209Z,77290.22
2018-10-17T00:55:15.190Z,77292.22
2018-10-17T00:57:42.006Z,77288.22
2018-10-17T01:00:09.866Z,77285.21
2018-10-17T01:02:37.648Z,77292.22
2018-10-17T01:05:05.528Z,77288.22
2018-10-17T01:07:33.400Z,77289.22
2018-10-17T01:10:00.312Z,77288.22
2018-10-17T01:12:27.149Z,77279.20
2018-10-17T01:14:53.946Z,77285.21
2018-10-17T01:17:20.789Z,77285.21
2018-10-17T01:19:47.616Z,77292.22
2018-10-17T01:22:14.454Z,77298.23
2018-10-17T01:24:41.317Z,77298.23
2018-10-17T01:27:09.137Z,77297.23
2018-10-17T01:29:36.083Z,77299.23
2018-10-17T01:32:02.928Z,77295.22
2018-10-17T01:34:29.770Z,77294.22
2018-10-17T01:36:56.645Z,77289.22
2018-10-17T01:39:23.464Z,77293.22
2018-10-17T01:41:50.388Z,77292.22
2018-10-17T01:44:17.235Z,77289.22
2018-10-17T01:46:44.938Z,77293.22
2018-10-17T01:49:11.911Z,77293.22
2018-10-17T01:51:39.715Z,77291.22
2018-10-17T01:54:07.604Z,77295.22
2018-10-17T01:56:35.446Z,77294.22
2018-10-17T01:59:03.307Z,77291.22
2018-10-17T02:01:31.264Z,77283.21
2018-10-17T02:03:59.146Z,77287.22
2018-10-17T02:06:27.912Z,77285.21
2018-10-17T02:08:56.716Z,77290.22
2018-10-17T02:11:23.573Z,77283.21
2018-10-17T02:13:51.283Z,77287.22
2018-10-17T02:16:19.122Z,77287.22
2018-10-17T02:18:47.003Z,77290.22
2018-10-17T02:21:14.755Z,77288.22
2018-10-17T02:23:42.580Z,77285.21
2018-10-17T02:26:09.411Z,77288.22
2018-10-17T02:28:36.258Z,77283.21
2018-10-17T02:31:03.978Z,77285.21
2018-10-17T02:33:31.704Z,77285.21
2018-10-17T02:35:59.339Z,77292.22
2018-10-17T02:38:26.258Z,77289.22
2018-10-17T02:40:54.057Z,77285.21
2018-10-17T02:43:20.972Z,77292.22
2018-10-17T02:45:47.895Z,77293.22
2018-10-17T02:48:15.693Z,77288.22
2018-10-17T02:50:43.523Z,77288.22
2018-10-17T02:53:10.492Z,77296.22
2018-10-17T02:55:37.318Z,77295.22
2018-10-17T02:58:04.296Z,77295.22
2018-10-17T03:00:32.073Z,77293.22
2018-10-17T03:02:58.926Z,77286.21
2018-10-17T03:05:26.561Z,77290.22
2018-10-17T03:07:55.267Z,77285.21
2018-10-17T03:10:22.131Z,77289.22
2018-10-17T03:12:48.982Z,77290.22
2018-10-17T03:15:16.759Z,77286.21
2018-10-17T03:17:43.611Z,77290.22
2018-10-17T03:20:11.579Z,77287.22
2018-10-17T03:22:39.309Z,77285.21
2018-10-17T03:25:07.625Z,77291.22
2018-10-17T03:27:35.469Z,77289.22
2018-10-17T03:30:03.290Z,77292.22
2018-10-17T03:32:30.181Z,77285.21
2018-10-17T03:34:57.071Z,77293.22
2018-10-17T03:37:23.963Z,77295.22
2018-10-17T03:39:51.675Z,77295.22
2018-10-17T03:42:19.489Z,77297.23
2018-10-17T03:44:47.444Z,77297.23
2018-10-17T03:47:14.382Z,77300.23
2018-10-17T03:49:41.253Z,77305.23
2018-10-17T03:52:08.083Z,77302.23
2018-10-17T03:54:35.764Z,77303.23
2018-10-17T03:57:02.605Z,77308.23
2018-10-17T03:59:29.615Z,77312.23
2018-10-17T04:01:56.396Z,77315.24
2018-10-17T04:04:23.270Z,77309.23
2018-10-17T04:06:50.127Z,77311.23
2018-10-17T04:09:17.013Z,77313.23
2018-10-17T04:11:43.870Z,77317.24
2018-10-17T04:14:10.769Z,77320.25
2018-10-17T04:16:38.432Z,77326.25
2018-10-17T04:19:05.276Z,77326.25
2018-10-17T04:21:33.097Z,77319.25
2018-10-17T04:24:00.932Z,77318.25
2018-10-17T04:26:28.698Z,77315.24
2018-10-17T04:28:56.533Z,77323.25
2018-10-17T04:31:24.710Z,77320.25
2018-10-17T04:33:52.530Z,77321.25
2018-10-17T04:36:20.405Z,77323.25
2018-10-17T04:38:48.196Z,77317.24
2018-10-17T04:41:15.144Z,77315.24
2018-10-17T04:43:42.815Z,77317.24
2018-10-17T04:46:10.537Z,77314.24
2018-10-17T04:48:37.478Z,77320.25
2018-10-17T04:51:05.179Z,77322.25
2018-10-17T04:53:32.036Z,77321.25
2018-10-17T04:55:59.806Z,77331.26
2018-10-17T04:58:26.679Z,77333.26
2018-10-17T05:00:53.560Z,77333.26
2018-10-17T05:03:20.449Z,77336.27
2018-10-17T05:05:48.107Z,77335.27
2018-10-17T05:08:15.013Z,77335.27
2018-10-17T05:10:41.857Z,77333.26
2018-10-17T05:13:08.747Z,77335.27
2018-10-17T05:15:36.675Z,77345.27
2018-10-17T05:18:03.571Z,77349.27
2018-10-17T05:20:30.604Z,77350.27
2018-10-17T05:22:59.702Z,77352.28
2018-10-17T05:25:27.787Z,77353.28
2018-10-17T05:27:57.484Z,77359.28
2018-10-17T05:30:25.229Z,77359.28
2018-10-17T05:32:53.376Z,77359.28
2018-10-17T05:35:20.426Z,77360.28
2018-10-17T05:37:47.762Z,77368.29
2018-10-17T05:40:14.939Z,77396.32
2018-10-17T05:42:42.057Z,77413.34
2018-10-17T05:45:10.353Z,77439.36
2018-10-17T05:47:37.449Z,77453.38
2018-10-17T05:50:04.577Z,77454.38
2018-10-17T05:52:31.679Z,77466.39
2018-10-17T05:54:59.009Z,77477.39
2018-10-17T05:57:27.380Z,77440.36
2018-10-17T05:59:56.126Z,77419.34
2018-10-17T06:02:26.280Z,77407.33
2018-10-17T06:04:53.717Z,77393.31
2018-10-17T06:07:21.020Z,77392.31
2018-10-17T06:09:48.320Z,77387.31
2018-10-17T06:12:15.714Z,77379.30
2018-10-17T06:14:42.983Z,77379.30
2018-10-17T06:17:10.153Z,77377.30
2018-10-17T06:19:37.293Z,77367.29
2018-10-17T06:22:04.525Z,77368.29
2018-10-17T06:24:31.729Z,77366.29
2018-10-17T06:26:58.991Z,77362.28
2018-10-17T06:29:26.550Z,77361.28
2018-10-17T06:31:53.620Z,77365.29
2018-10-17T06:34:20.692Z,77359.28
2018-10-17T06:36:47.872Z,77366.29
2018-10-17T06:39:15.032Z,77365.29
2018-10-17T06:41:42.207Z,77367.29
2018-10-17T06:44:10.093Z,77368.29
2018-10-17T06:46:39.378Z,77368.29
2018-10-17T06:49:06.566Z,77365.29
2018-10-17T06:51:33.759Z,77364.28
2018-10-17T06:54:01.831Z,77356.28
2018-10-17T06:56:30.035Z,77359.28
2018-10-17T06:58:57.258Z,77355.28
2018-10-17T07:01:25.505Z,77355.28
2018-10-17T07:03:53.507Z,77359.28
2018-10-17T07:06:21.528Z,77357.28
2018-10-17T07:08:49.138Z,77355.28
2018-10-17T07:11:16.386Z,77362.28
2018-10-17T07:13:45.351Z,77367.29
2018-10-17T07:16:12.494Z,77370.30
2018-10-17T07:18:39.699Z,77375.30
2018-10-17T07:21:06.851Z,77370.30
2018-10-17T07:23:34.929Z,77369.30
2018-10-17T07:26:02.093Z,77371.30
2018-10-17T07:28:29.376Z,77370.30
2018-10-17T07:30:56.573Z,77373.30
2018-10-17T07:33:23.756Z,77373.30
2018-10-17T07:35:51.057Z,77371.30
2018-10-17T07:38:18.993Z,77374.30
2018-10-17T07:40:47.088Z,77374.30
2018-10-17T07:43:14.280Z,77370.30
2018-10-17T07:45:42.123Z,77376.30
2018-10-17T07:48:09.343Z,77375.30
2018-10-17T07:50:37.371Z,77371.30
2018-10-17T07:53:05.411Z,77374.30
2018-10-17T07:55:32.560Z,77372.30
2018-10-17T07:58:00.537Z,77373.30
2018-10-17T08:00:27.847Z,77371.30
2018-10-17T08:02:56.900Z,77371.30
2018-10-17T08:05:25.745Z,77375.30
2018-10-17T08:07:52.973Z,77370.30
2018-10-17T08:10:21.035Z,77371.30
2018-10-17T08:12:49.211Z,77373.30
2018-10-17T08:15:17.370Z,77371.30
2018-10-17T08:17:45.455Z,77371.30
2018-10-17T08:20:13.549Z,77371.30
2018-10-17T08:22:41.563Z,77371.30
2018-10-17T08:25:09.898Z,77375.30
2018-10-17T08:27:37.242Z,77371.30
2018-10-17T08:30:04.953Z,77371.30
2018-10-17T08:32:32.263Z,77369.30
2018-10-17T08:34:59.411Z,77372.30
2018-10-17T08:37:27.756Z,77373.30
2018-10-17T08:39:55.131Z,77372.30
2018-10-17T08:42:22.381Z,77367.29
2018-10-17T08:44:49.518Z,77369.30
2018-10-17T08:47:16.565Z,77369.30
2018-10-17T08:49:43.766Z,77371.30
2018-10-17T08:52:10.886Z,77371.30
2018-10-17T08:54:38.030Z,77375.30
2018-10-17T08:57:05.214Z,77371.30
2018-10-17T08:59:32.450Z,77375.30
2018-10-17T09:01:59.716Z,77379.30
2018-10-17T09:04:26.950Z,77374.30
2018-10-17T09:06:55.291Z,77376.30
2018-10-17T09:09:23.429Z,77371.30
2018-10-17T09:11:51.588Z,77374.30
2018-10-17T09:14:18.837Z,77372.30
2018-10-17T09:16:46.051Z,77364.28
2018-10-17T09:19:14.220Z,77364.28
2018-10-17T09:21:42.621Z,77367.29
2018-10-17T09:24:10.497Z,77368.29
2018-10-17T09:26:38.605Z,77359.28
2018-10-17T09:29:06.868Z,77359.28
2018-10-17T09:31:34.083Z,77346.27
2018-10-17T09:34:02.307Z,77342.27
2018-10-17T09:36:29.770Z,77343.27
2018-10-17T09:38:56.933Z,77339.27
2018-10-17T09:41:24.170Z,77337.27
2018-10-17T09:43:52.469Z,77332.26
2018-10-17T09:46:19.562Z,77337.27
2018-10-17T09:48:46.994Z,77331.26
2018-10-17T09:51:14.126Z,77331.26
2018-10-17T09:53:42.458Z,77329.25
2018-10-17T09:56:11.688Z,77329.25
2018-10-17T09:58:39.623Z,77329.25
2018-10-17T10:01:13.273Z,77331.26
2018-10-17T10:03:41.416Z,77330.25
2018-10-17T10:06:09.543Z,77335.27
2018-10-17T10:08:36.827Z,77327.25
2018-10-17T10:11:04.283Z,77323.25
2018-10-17T10:13:31.545Z,77329.25
2018-10-17T10:15:58.837Z,77317.24
2018-10-17T10:18:26.980Z,77318.25
2018-10-17T10:20:55.793Z,77321.25
2018-10-17T10:23:24.041Z,77310.23
2018-10-17T10:25:51.177Z,77309.23
2018-10-17T10:28:19.369Z,77309.23
2018-10-17T10:30:47.326Z,77306.23
2018-10-17T10:33:15.329Z,77309.23
2018-10-17T10:35:42.568Z,77307.23
2018-10-17T10:38:10.612Z,77307.23
2018-10-17T10:40:38.644Z,77307.23
2018-10-17T10:43:05.808Z,77303.23
2018-10-17T10:45:33.982Z,77304.23
2018-10-17T10:48:01.063Z,77302.23
2018-10-17T10:50:29.184Z,77291.22
2018-10-17T10:52:56.896Z,77291.22
2018-10-17T10:55:24.963Z,77291.22
2018-10-17T10:57:52.980Z,77282.20
2018-10-17T11:00:21.141Z,77275.20
2018-10-17T11:02:49.036Z,77271.20
2018-10-17T11:05:17.169Z,77270.20
2018-10-17T11:07:45.334Z,77272.20
2018-10-17T11:10:13.343Z,77274.20
2018-10-17T11:12:41.547Z,77272.20
2018-10-17T11:15:10.051Z,77270.20
2018-10-17T11:17:38.196Z,77264.19
2018-10-17T11:20:06.751Z,77261.19
2018-10-17T11:22:35.113Z,77265.20
2018-10-17T11:25:03.133Z,77261.19
2018-10-17T11:27:31.280Z,77263.19
2018-10-17T11:29:59.361Z,77261.19
2018-10-17T11:32:26.619Z,77262.19
2018-10-17T11:34:53.751Z,77259.19
2018-10-17T11:37:20.880Z,77260.19
2018-10-17T11:39:49.127Z,77255.19
2018-10-17T11:42:16.309Z,77249.18
2018-10-17T11:44:44.443Z,77250.18
2018-10-17T11:47:11.708Z,77249.18
2018-10-17T11:49:39.720Z,77250.18
2018-10-17T11:52:06.859Z,77245.17
2018-10-17T11:54:34.947Z,77247.17
2018-10-17T11:57:03.249Z,77243.17
2018-10-17T11:59:30.277Z,77240.17
2018-10-17T12:01:58.381Z,77238.17
2018-10-17T12:04:26.573Z,77239.17
2018-10-17T12:06:53.556Z,77230.16
2018-10-17T12:09:20.766Z,77231.16
2018-10-17T12:11:49.010Z,77230.16
2018-10-17T12:14:17.405Z,77227.16
2018-10-17T12:16:45.451Z,77219.16
2018-10-17T12:19:13.630Z,77222.16
2018-10-17T12:21:41.541Z,77223.16
2018-10-17T12:24:09.633Z,77223.16
2018-10-17T12:26:36.760Z,77222.16
2018-10-17T12:29:04.818Z,77223.16
2018-10-17T12:31:32.705Z,77221.16
2018-10-17T12:34:00.817Z,77220.16
2018-10-17T12:36:28.846Z,77222.16
2018-10-17T12:38:57.083Z,77226.16
2018-10-17T12:41:26.300Z,77227.16
2018-10-17T12:43:55.067Z,77223.16
2018-10-17T12:46:23.163Z,77223.16
2018-10-17T12:48:50.924Z,77223.16
2018-10-17T12:51:18.921Z,77225.16
2018-10-17T12:53:45.985Z,77223.16
2018-10-17T12:56:14.240Z,77219.16
2018-10-17T12:58:42.280Z,77221.16
2018-10-17T13:01:10.479Z,77231.16
2018-10-17T13:03:38.428Z,77222.16
2018-10-17T13:06:06.597Z,77223.16
2018-10-17T13:08:34.658Z,77223.16
2018-10-17T13:11:02.773Z,77219.16
2018-10-17T13:13:30.865Z,77218.16
2018-10-17T13:15:58.989Z,77217.16
2018-10-17T13:18:26.984Z,77217.16
2018-10-17T13:20:55.283Z,77216.15
2018-10-17T13:23:23.468Z,77217.16
2018-10-17T13:25:51.538Z,77218.16
2018-10-17T13:28:19.597Z,77220.16
2018-10-17T13:30:47.664Z,77214.15
2018-10-17T13:33:15.779Z,77218.16
2018-10-17T13:35:43.866Z,77221.16
2018-10-17T13:38:11.934Z,77221.16
2018-10-17T13:40:40.064Z,77217.16
2018-10-17T13:43:08.228Z,77215.15
2018-10-17T13:45:36.618Z,77218.16
2018-10-17T13:48:04.996Z,77219.16
2018-10-17T13:50:33.060Z,77216.15
2018-10-17T13:53:01.060Z,77219.16
2018-10-17T13:55:29.309Z,77214.15
2018-10-17T13:57:57.584Z,77212.15
2018-10-17T14:00:26.226Z,77211.14
2018-10-17T14:02:53.427Z,77212.15
2018-10-17T14:05:20.722Z,77211.14
2018-10-17T14:07:47.919Z,77212.15
2018-10-17T14:10:16.015Z,77210.14
2018-10-17T14:12:44.044Z,77208.14
2018-10-17T14:15:11.307Z,77207.14
2018-10-17T14:17:38.451Z,77202.14
2018-10-17T14:20:06.676Z,77206.14
2018-10-17T14:22:34.626Z,77212.15
2018-10-17T14:25:01.692Z,77208.14
2018-10-17T14:27:28.823Z,77213.15
2018-10-17T14:29:56.746Z,77211.14
2018-10-17T14:32:23.719Z,77211.14
2018-10-17T14:34:51.315Z,77213.15
2018-10-17T14:37:18.501Z,77214.15
2018-10-17T14:39:45.609Z,77211.14
2018-10-17T14:42:12.823Z,77211.14
2018-10-17T14:44:39.969Z,77211.14
2018-10-17T14:47:07.031Z,77207.14
2018-10-17T14:49:34.178Z,77208.14
2018-10-17T14:52:01.346Z,77209.14
2018-10-17T14:54:28.513Z,77207.14
2018-10-17T14:56:56.565Z,77209.14
2018-10-17T14:59:23.769Z,77205.14
2018-10-17T15:01:53.351Z,77208.14
2018-10-17T15:04:20.526Z,77205.14
2018-10-17T15:06:47.782Z,77208.14
2018-10-17T15:09:15.276Z,77203.14
2018-10-17T15:11:42.610Z,77207.14
2018-10-17T15:14:10.640Z,77206.14
2018-10-17T15:16:38.137Z,77206.14
2018-10-17T15:19:05.113Z,77209.14
2018-10-17T15:21:32.197Z,77208.14
2018-10-17T15:23:59.377Z,77209.14
2018-10-17T15:26:26.544Z,77212.15
2018-10-17T15:28:53.609Z,77211.14
2018-10-17T15:31:20.840Z,77215.15
2018-10-17T15:33:47.920Z,77217.16
2018-10-17T15:36:16.091Z,77222.16
2018-10-17T15:38:43.241Z,77226.16
2018-10-17T15:41:10.638Z,77224.16
2018-10-17T15:43:38.057Z,77233.16
2018-10-17T15:46:05.637Z,77236.17
2018-10-17T15:48:32.881Z,77243.17
2018-10-17T15:51:06.657Z,77244.17
2018-10-17T15:53:33.931Z,77237.17
2018-10-17T15:56:02.076Z,77240.17
2018-10-17T15:58:29.232Z,77237.17
2018-10-17T16:00:56.463Z,77245.17
2018-10-17T16:03:25.215Z,77248.18
2018-10-17T16:05:52.609Z,77248.18
2018-10-17T16:08:19.765Z,77243.17
2018-10-17T16:10:46.867Z,77239.17
2018-10-17T16:13:14.954Z,77238.17
2018-10-17T16:15:42.346Z,77244.17
2018-10-17T16:18:11.877Z,77245.17
2018-10-17T16:20:39.882Z,77243.17
2018-10-17T16:23:08.140Z,77240.17
2018-10-17T16:25:35.542Z,77225.16
2018-10-17T16:28:02.897Z,77219.16
2018-10-17T16:30:30.245Z,77217.16
2018-10-17T16:32:57.345Z,77225.16
2018-10-17T16:35:26.509Z,77225.16
2018-10-17T16:37:55.475Z,77235.17
2018-10-17T16:40:22.768Z,77233.16
2018-10-17T16:42:49.837Z,77230.16
2018-10-17T16:45:17.916Z,77238.17
2018-10-17T16:47:46.056Z,77241.17
2018-10-17T16:50:13.346Z,77242.17
2018-10-17T16:52:41.329Z,77247.17
2018-10-17T16:55:08.802Z,77248.18
2018-10-17T16:57:36.309Z,77259.19
2018-10-17T17:00:05.198Z,77261.19
2018-10-17T17:02:32.441Z,77260.19
2018-10-17T17:05:00.524Z,77261.19
2018-10-17T17:07:27.785Z,77268.20
2018-10-17T17:09:55.355Z,77270.20
2018-10-17T17:12:23.405Z,77270.20
2018-10-17T17:14:51.456Z,77271.20
2018-10-17T17:17:18.645Z,77270.20
2018-10-17T17:19:45.761Z,77275.20
2018-10-17T17:22:13.163Z,77272.20
2018-10-17T17:24:40.491Z,77276.20
2018-10-17T17:27:08.282Z,77280.20
2018-10-17T17:29:35.553Z,77274.20
2018-10-17T17:32:03.852Z,77283.21
2018-10-17T17:34:30.968Z,77281.20
2018-10-17T17:36:59.058Z,77281.20
2018-10-17T17:39:27.204Z,77282.20
2018-10-17T17:41:54.902Z,77280.20
2018-10-17T17:44:22.067Z,77281.20
2018-10-17T17:46:49.517Z,77283.21
2018-10-17T17:49:16.655Z,77277.20
2018-10-17T17:51:44.799Z,77281.20
2018-10-17T17:54:12.130Z,77283.21
2018-10-17T17:56:39.403Z,77281.20
2018-10-17T17:59:06.565Z,77283.21
2018-10-17T18:01:33.842Z,77278.20
2018-10-17T18:04:02.071Z,77283.21
2018-10-17T18:06:29.307Z,77282.20
2018-10-17T18:08:58.538Z,77283.21
2018-10-17T18:11:29.064Z,77278.20
2018-10-17T18:13:58.136Z,77283.21
2018-10-17T18:16:26.403Z,77279.20
2018-10-17T18:18:55.333Z,77285.21
2018-10-17T18:21:23.318Z,77285.21
2018-10-17T18:23:50.469Z,77288.22
2018-10-17T18:26:18.588Z,77290.22
2018-10-17T18:28:45.760Z,77292.22
2018-10-17T18:31:13.211Z,77296.22
2018-10-17T18:33:40.386Z,77294.22
2018-10-17T18:36:07.620Z,77292.22
2018-10-17T18:38:36.008Z,77292.22
2018-10-17T18:41:03.398Z,77293.22
2018-10-17T18:43:30.601Z,77293.22
2018-10-17T18:45:57.822Z,77295.22
2018-10-17T18:48:25.988Z,77287.22
2018-10-17T18:50:53.183Z,77289.22
2018-10-17T18:53:20.380Z,77285.21
2018-10-17T18:55:48.386Z,77285.21
2018-10-17T18:58:15.873Z,77289.22
2018-10-17T19:00:43.221Z,77288.22
2018-10-17T19:03:10.528Z,77285.21
2018-10-17T19:05:37.736Z,77285.21
2018-10-17T19:08:04.846Z,77287.22
2018-10-17T19:10:33.158Z,77286.21
2018-10-17T19:13:00.319Z,77287.22
2018-10-17T19:15:27.650Z,77291.22
2018-10-17T19:17:55.574Z,77289.22
2018-10-17T19:20:23.797Z,77291.22
2018-10-17T19:22:50.988Z,77293.22
2018-10-17T19:25:18.376Z,77295.22
2018-10-17T19:27:45.737Z,77299.23
2018-10-17T19:30:13.004Z,77302.23
2018-10-17T19:32:40.085Z,77309.23
2018-10-17T19:35:07.525Z,77309.23
2018-10-17T19:37:34.808Z,77302.23
2018-10-17T19:40:04.483Z,77304.23
2018-10-17T19:42:31.801Z,77304.23
2018-10-17T19:44:59.241Z,77304.23
2018-10-17T19:47:27.581Z,77305.23
2018-10-17T19:49:56.071Z,77306.23
2018-10-17T19:52:23.168Z,77304.23
2018-10-17T19:54:50.650Z,77305.23
2018-10-17T19:57:19.936Z,77307.23
2018-10-17T19:59:47.130Z,77308.23
2018-10-17T20:02:15.371Z,77307.23
2018-10-17T20:04:42.505Z,77312.23
2018-10-17T20:07:09.819Z,77310.23
2018-10-17T20:09:37.099Z,77302.23
2018-10-17T20:13:29.288Z,77306.23
2018-10-17T20:15:56.545Z,77303.23
2018-10-17T20:18:25.643Z,77301.23
2018-10-17T20:20:53.788Z,77310.23
2018-10-17T20:23:21.217Z,77304.23
2018-10-17T20:25:49.261Z,77305.23
2018-10-17T20:28:16.358Z,77301.23
2018-10-17T20:30:44.282Z,77299.23
2018-10-17T20:33:11.514Z,77303.23
2018-10-17T20:35:39.617Z,77301.23
2018-10-17T20:38:07.564Z,77305.23
2018-10-17T20:40:34.718Z,77308.23
2018-10-17T20:43:01.864Z,77307.23
2018-10-17T20:45:29.056Z,77306.23
2018-10-17T20:47:56.761Z,77307.23
2018-10-17T20:50:25.915Z,77307.23
2018-10-17T20:52:53.935Z,77307.23
2018-10-17T20:55:22.155Z,77311.23
2018-10-17T20:57:50.171Z,77309.23
2018-10-17T21:00:18.124Z,77315.24
2018-10-17T21:02:45.337Z,77315.24
2018-10-17T21:05:13.398Z,77313.23
2018-10-17T21:07:41.618Z,77313.23
2018-10-17T21:10:08.893Z,77313.23
2018-10-17T21:12:37.582Z,77306.23
2018-10-17T21:15:05.226Z,77311.23
2018-10-17T21:17:32.454Z,77311.23
2018-10-17T21:20:00.819Z,77308.23
2018-10-17T21:22:28.047Z,77312.23
2018-10-17T21:24:56.410Z,77312.23
2018-10-17T21:27:23.529Z,77319.25
2018-10-17T21:29:50.724Z,77319.25
2018-10-17T21:32:17.888Z,77311.23
2018-10-17T21:34:44.952Z,77303.23
2018-10-17T21:37:12.209Z,77298.23
2018-10-17T21:39:39.227Z,77298.23
2018-10-17T21:42:06.279Z,77294.22
2018-10-17T21:44:34.398Z,77294.22
2018-10-17T21:47:02.247Z,77294.22
2018-10-17T21:49:30.142Z,77296.22
2018-10-17T21:51:58.341Z,77295.22
2018-10-17T21:54:26.531Z,77293.22
2018-10-17T21:56:53.658Z,77295.22
2018-10-17T21:59:20.781Z,77291.22
2018-10-17T22:01:47.906Z,77295.22
2018-10-17T22:04:14.993Z,77292.22
2018-10-17T22:06:42.099Z,77300.23
2018-10-17T22:09:09.858Z,77299.23
2018-10-17T22:11:36.996Z,77299.23
2018-10-17T22:14:04.170Z,77298.23
2018-10-17T22:16:37.756Z,77294.22
2018-10-17T22:19:06.039Z,77293.22
2018-10-17T22:21:33.152Z,77296.22
2018-10-17T22:24:00.333Z,77295.22
2018-10-17T22:26:28.464Z,77294.22
2018-10-17T22:28:55.974Z,77296.22
2018-10-17T22:31:24.126Z,77295.22
2018-10-17T22:33:52.317Z,77298.23
2018-10-17T22:36:19.589Z,77301.23
2018-10-17T22:38:46.810Z,77299.23
2018-10-17T22:41:15.087Z,77301.23
2018-10-17T22:43:43.083Z,77311.23
2018-10-17T22:46:11.023Z,77312.23
2018-10-17T22:48:39.146Z,77311.23
2018-10-17T22:51:06.229Z,77306.23
2018-10-17T22:53:34.328Z,77306.23
2018-10-17T22:56:02.634Z,77308.23
2018-10-17T22:58:30.600Z,77309.23
2018-10-17T23:00:58.533Z,77308.23
2018-10-17T23:03:26.520Z,77311.23
2018-10-17T23:05:53.958Z,77308.23
2018-10-17T23:08:21.085Z,77308.23
2018-10-17T23:10:48.355Z,77306.23
2018-10-17T23:13:15.462Z,77304.23
2018-10-17T23:15:42.662Z,77302.23
2018-10-17T23:18:09.799Z,77303.23
2018-10-17T23:20:37.939Z,77306.23
2018-10-17T23:23:05.043Z,77305.23
2018-10-17T23:25:33.064Z,77307.23
2018-10-17T23:28:01.177Z,77303.23
2018-10-17T23:30:28.235Z,77301.23
2018-10-17T23:32:57.306Z,77301.23
2018-10-17T23:35:25.511Z,77301.23
2018-10-17T23:37:53.668Z,77297.23
2018-10-17T23:40:21.699Z,77299.23
2018-10-17T23:42:49.884Z,77303.23
2018-10-17T23:45:18.150Z,77303.23
2018-10-17T23:47:46.028Z,77305.23
2018-10-17T23:50:13.274Z,77304.23
2018-10-17T23:52:41.344Z,77300.23
2018-10-17T23:55:08.812Z,77298.23
2018-10-17T23:57:36.900Z,77306.23
